Gulkana, Alaska
Current Conditions -  °F | °C
As of 1:53 AM on Thursday 23 Oct 2014 (Local Time) from PAGK Reporting Station
Overcast Overcast  
Wind Chill: 21°   Ceiling: 9000
Heat Index: 21°   Visibility: 10mi
Dew Point: 19°   Wind: 3mph
Humidity: 92%   Direction: 360°N
Pressure: 29.59"   Gusts: NA
Location:  62.25°N, 145.42°W
Report Text: PAGK 230953Z AUTO 36003KT 10SM OVC090 M06/M07 A2959 RMK AO2 SLP055 T10611072 TSNO
Loading
Personal Weather Stations






























Interactive Weather Map
Tropical Storm Tracking
New forecast layout! Learn more

10-Day Weather Forecast

Advertisements
Track Severe Weather on mobile